sensor_id;sensor_type;location;lat;lon;timestamp;P1;durP1;ratioP1;P2;durP2;ratioP2
15474;SDS011;7839;50.462;9.678;2022-12-18T00:00:28;2.03;;;1.80;;
15474;SDS011;7839;50.462;9.678;2022-12-18T00:07:08;2.00;;;1.90;;
15474;SDS011;7839;50.462;9.678;2022-12-18T00:13:48;1.88;;;1.67;;
15474;SDS011;7839;50.462;9.678;2022-12-18T00:20:29;2.03;;;1.80;;
15474;SDS011;7839;50.462;9.678;2022-12-18T00:27:09;2.13;;;1.90;;
15474;SDS011;7839;50.462;9.678;2022-12-18T00:33:49;2.00;;;1.70;;
15474;SDS011;7839;50.462;9.678;2022-12-18T00:40:30;2.13;;;1.93;;
15474;SDS011;7839;50.462;9.678;2022-12-18T00:47:10;1.73;;;1.63;;
15474;SDS011;7839;50.462;9.678;2022-12-18T00:53:50;1.80;;;1.70;;
15474;SDS011;7839;50.462;9.678;2022-12-18T01:00:31;2.03;;;1.93;;
15474;SDS011;7839;50.462;9.678;2022-12-18T01:07:11;2.30;;;1.57;;
15474;SDS011;7839;50.462;9.678;2022-12-18T01:13:52;1.70;;;1.60;;
15474;SDS011;7839;50.462;9.678;2022-12-18T01:20:33;2.40;;;1.83;;
15474;SDS011;7839;50.462;9.678;2022-12-18T01:27:13;2.20;;;1.80;;
15474;SDS011;7839;50.462;9.678;2022-12-18T01:33:54;1.83;;;1.63;;
15474;SDS011;7839;50.462;9.678;2022-12-18T01:40:35;1.67;;;1.57;;
15474;SDS011;7839;50.462;9.678;2022-12-18T01:47:17;2.10;;;1.53;;
15474;SDS011;7839;50.462;9.678;2022-12-18T01:53:58;1.80;;;1.70;;
15474;SDS011;7839;50.462;9.678;2022-12-18T02:00:39;1.40;;;1.30;;
15474;SDS011;7839;50.462;9.678;2022-12-18T02:07:22;1.67;;;1.50;;
15474;SDS011;7839;50.462;9.678;2022-12-18T02:14:16;1.60;;;1.40;;
15474;SDS011;7839;50.462;9.678;2022-12-18T02:21:00;1.87;;;1.60;;
15474;SDS011;7839;50.462;9.678;2022-12-18T02:27:45;1.97;;;1.50;;
15474;SDS011;7839;50.462;9.678;2022-12-18T02:34:28;1.70;;;1.60;;
15474;SDS011;7839;50.462;9.678;2022-12-18T02:41:10;1.80;;;1.60;;
15474;SDS011;7839;50.462;9.678;2022-12-18T02:47:50;1.40;;;1.30;;
15474;SDS011;7839;50.462;9.678;2022-12-18T02:54:36;1.60;;;1.30;;
15474;SDS011;7839;50.462;9.678;2022-12-18T03:01:19;1.70;;;1.60;;
15474;SDS011;7839;50.462;9.678;2022-12-18T03:08:12;1.23;;;1.13;;
15474;SDS011;7839;50.462;9.678;2022-12-18T03:14:59;1.60;;;1.20;;
15474;SDS011;7839;50.462;9.678;2022-12-18T03:21:47;1.50;;;1.40;;
15474;SDS011;7839;50.462;9.678;2022-12-18T03:28:29;1.27;;;1.17;;
15474;SDS011;7839;50.462;9.678;2022-12-18T03:35:11;1.30;;;1.20;;
15474;SDS011;7839;50.462;9.678;2022-12-18T03:48:41;1.30;;;1.20;;
15474;SDS011;7839;50.462;9.678;2022-12-18T03:55:24;1.40;;;1.30;;
15474;SDS011;7839;50.462;9.678;2022-12-18T04:02:06;1.20;;;1.10;;
15474;SDS011;7839;50.462;9.678;2022-12-18T04:08:47;1.10;;;1.00;;
15474;SDS011;7839;50.462;9.678;2022-12-18T04:15:28;1.07;;;1.07;;
15474;SDS011;7839;50.462;9.678;2022-12-18T04:22:09;1.50;;;1.40;;
15474;SDS011;7839;50.462;9.678;2022-12-18T04:28:49;1.40;;;1.30;;
15474;SDS011;7839;50.462;9.678;2022-12-18T04:35:29;1.67;;;1.33;;
15474;SDS011;7839;50.462;9.678;2022-12-18T04:42:10;1.20;;;1.10;;
15474;SDS011;7839;50.462;9.678;2022-12-18T04:48:50;1.20;;;1.10;;
15474;SDS011;7839;50.462;9.678;2022-12-18T04:55:30;0.73;;;0.73;;
15474;SDS011;7839;50.462;9.678;2022-12-18T05:02:11;1.27;;;1.10;;
15474;SDS011;7839;50.462;9.678;2022-12-18T05:08:51;1.50;;;1.40;;
15474;SDS011;7839;50.462;9.678;2022-12-18T05:15:31;1.27;;;1.13;;
15474;SDS011;7839;50.462;9.678;2022-12-18T05:22:12;0.93;;;0.93;;
15474;SDS011;7839;50.462;9.678;2022-12-18T05:28:52;0.90;;;0.90;;
15474;SDS011;7839;50.462;9.678;2022-12-18T05:35:32;1.20;;;1.10;;
15474;SDS011;7839;50.462;9.678;2022-12-18T05:42:13;1.00;;;0.90;;
15474;SDS011;7839;50.462;9.678;2022-12-18T05:48:53;0.77;;;0.77;;
15474;SDS011;7839;50.462;9.678;2022-12-18T05:55:36;1.27;;;1.17;;
15474;SDS011;7839;50.462;9.678;2022-12-18T06:02:17;1.03;;;0.97;;
15474;SDS011;7839;50.462;9.678;2022-12-18T06:08:57;0.93;;;0.85;;
15474;SDS011;7839;50.462;9.678;2022-12-18T06:15:38;1.10;;;1.00;;
15474;SDS011;7839;50.462;9.678;2022-12-18T06:22:18;0.90;;;0.90;;
15474;SDS011;7839;50.462;9.678;2022-12-18T06:28:58;1.00;;;1.00;;
15474;SDS011;7839;50.462;9.678;2022-12-18T06:35:38;0.67;;;0.67;;
15474;SDS011;7839;50.462;9.678;2022-12-18T06:42:22;0.70;;;0.70;;
15474;SDS011;7839;50.462;9.678;2022-12-18T06:49:02;1.27;;;1.17;;
15474;SDS011;7839;50.462;9.678;2022-12-18T06:55:43;1.03;;;0.93;;
15474;SDS011;7839;50.462;9.678;2022-12-18T07:02:23;0.75;;;0.73;;
15474;SDS011;7839;50.462;9.678;2022-12-18T07:09:03;1.30;;;1.20;;
15474;SDS011;7839;50.462;9.678;2022-12-18T07:15:43;0.83;;;0.83;;
15474;SDS011;7839;50.462;9.678;2022-12-18T07:22:24;1.07;;;1.00;;
15474;SDS011;7839;50.462;9.678;2022-12-18T07:29:05;1.03;;;1.03;;
15474;SDS011;7839;50.462;9.678;2022-12-18T07:35:45;1.30;;;1.10;;
15474;SDS011;7839;50.462;9.678;2022-12-18T07:42:25;0.90;;;0.90;;
15474;SDS011;7839;50.462;9.678;2022-12-18T07:49:11;0.90;;;0.90;;
15474;SDS011;7839;50.462;9.678;2022-12-18T07:55:56;1.43;;;1.30;;
15474;SDS011;7839;50.462;9.678;2022-12-18T08:02:36;0.97;;;0.83;;
15474;SDS011;7839;50.462;9.678;2022-12-18T08:09:17;1.07;;;1.00;;
15474;SDS011;7839;50.462;9.678;2022-12-18T08:16:02;0.93;;;0.90;;
15474;SDS011;7839;50.462;9.678;2022-12-18T08:22:42;1.10;;;1.00;;
15474;SDS011;7839;50.462;9.678;2022-12-18T08:29:23;1.57;;;0.90;;
15474;SDS011;7839;50.462;9.678;2022-12-18T08:36:03;1.43;;;0.90;;
15474;SDS011;7839;50.462;9.678;2022-12-18T08:42:43;1.00;;;1.00;;
15474;SDS011;7839;50.462;9.678;2022-12-18T08:49:42;1.17;;;1.07;;
15474;SDS011;7839;50.462;9.678;2022-12-18T08:56:23;1.83;;;1.33;;
15474;SDS011;7839;50.462;9.678;2022-12-18T09:03:03;1.57;;;1.10;;
15474;SDS011;7839;50.462;9.678;2022-12-18T09:09:43;1.30;;;1.20;;
15474;SDS011;7839;50.462;9.678;2022-12-18T09:16:24;1.40;;;1.30;;
15474;SDS011;7839;50.462;9.678;2022-12-18T09:23:05;1.40;;;1.30;;
15474;SDS011;7839;50.462;9.678;2022-12-18T09:29:45;1.60;;;1.50;;
15474;SDS011;7839;50.462;9.678;2022-12-18T09:36:25;1.67;;;1.40;;
15474;SDS011;7839;50.462;9.678;2022-12-18T09:43:06;1.40;;;1.30;;
15474;SDS011;7839;50.462;9.678;2022-12-18T09:49:50;1.50;;;1.40;;
15474;SDS011;7839;50.462;9.678;2022-12-18T09:56:34;1.60;;;1.50;;
15474;SDS011;7839;50.462;9.678;2022-12-18T10:03:15;2.13;;;1.70;;
15474;SDS011;7839;50.462;9.678;2022-12-18T10:10:19;1.77;;;1.67;;
15474;SDS011;7839;50.462;9.678;2022-12-18T10:17:02;1.90;;;1.60;;
15474;SDS011;7839;50.462;9.678;2022-12-18T10:24:03;1.80;;;1.50;;
15474;SDS011;7839;50.462;9.678;2022-12-18T10:30:48;1.70;;;1.60;;
15474;SDS011;7839;50.462;9.678;2022-12-18T10:37:29;1.80;;;1.57;;
15474;SDS011;7839;50.462;9.678;2022-12-18T10:44:19;2.00;;;1.80;;
15474;SDS011;7839;50.462;9.678;2022-12-18T10:51:00;1.77;;;1.67;;
15474;SDS011;7839;50.462;9.678;2022-12-18T10:57:40;1.90;;;1.70;;
15474;SDS011;7839;50.462;9.678;2022-12-18T11:04:25;2.27;;;1.93;;
15474;SDS011;7839;50.462;9.678;2022-12-18T11:11:15;1.83;;;1.73;;
15474;SDS011;7839;50.462;9.678;2022-12-18T11:17:58;2.40;;;2.03;;
15474;SDS011;7839;50.462;9.678;2022-12-18T11:24:39;1.80;;;1.70;;
15474;SDS011;7839;50.462;9.678;2022-12-18T11:38:10;1.83;;;1.73;;
15474;SDS011;7839;50.462;9.678;2022-12-18T11:45:00;3.60;;;1.77;;
15474;SDS011;7839;50.462;9.678;2022-12-18T11:51:42;2.70;;;2.00;;
15474;SDS011;7839;50.462;9.678;2022-12-18T12:33:00;2.40;;;2.20;;
15474;SDS011;7839;50.462;9.678;2022-12-18T12:39:43;2.80;;;2.30;;
15474;SDS011;7839;50.462;9.678;2022-12-18T12:46:24;3.03;;;2.23;;
15474;SDS011;7839;50.462;9.678;2022-12-18T12:53:06;2.47;;;2.27;;
15474;SDS011;7839;50.462;9.678;2022-12-18T12:59:51;2.20;;;2.00;;
15474;SDS011;7839;50.462;9.678;2022-12-18T13:06:35;2.87;;;2.17;;
15474;SDS011;7839;50.462;9.678;2022-12-18T13:13:17;2.50;;;2.30;;
15474;SDS011;7839;50.462;9.678;2022-12-18T13:20:12;3.23;;;2.00;;
15474;SDS011;7839;50.462;9.678;2022-12-18T13:26:53;2.60;;;2.40;;
15474;SDS011;7839;50.462;9.678;2022-12-18T13:47:34;11.73;;;9.57;;
15474;SDS011;7839;50.462;9.678;2022-12-18T14:01:23;17.53;;;12.47;;
15474;SDS011;7839;50.462;9.678;2022-12-18T14:08:13;6.63;;;4.80;;
15474;SDS011;7839;50.462;9.678;2022-12-18T14:14:54;6.47;;;4.77;;
15474;SDS011;7839;50.462;9.678;2022-12-18T14:21:35;4.40;;;3.63;;
15474;SDS011;7839;50.462;9.678;2022-12-18T14:28:17;4.83;;;3.57;;
15474;SDS011;7839;50.462;9.678;2022-12-18T14:34:57;3.53;;;3.17;;
15474;SDS011;7839;50.462;9.678;2022-12-18T14:41:38;4.53;;;3.73;;
15474;SDS011;7839;50.462;9.678;2022-12-18T14:55:18;4.07;;;2.97;;
15474;SDS011;7839;50.462;9.678;2022-12-18T15:08:59;2.97;;;2.60;;
15474;SDS011;7839;50.462;9.678;2022-12-18T15:22:21;2.97;;;2.77;;
15474;SDS011;7839;50.462;9.678;2022-12-18T15:29:03;2.87;;;2.57;;
15474;SDS011;7839;50.462;9.678;2022-12-18T15:35:43;3.17;;;2.70;;
15474;SDS011;7839;50.462;9.678;2022-12-18T15:42:23;2.50;;;2.20;;
15474;SDS011;7839;50.462;9.678;2022-12-18T15:49:23;2.60;;;2.40;;
15474;SDS011;7839;50.462;9.678;2022-12-18T15:56:04;2.63;;;2.43;;
15474;SDS011;7839;50.462;9.678;2022-12-18T16:03:04;2.67;;;2.47;;
15474;SDS011;7839;50.462;9.678;2022-12-18T16:09:44;2.60;;;2.33;;
15474;SDS011;7839;50.462;9.678;2022-12-18T16:16:27;2.30;;;2.10;;
15474;SDS011;7839;50.462;9.678;2022-12-18T16:23:07;2.90;;;2.50;;
15474;SDS011;7839;50.462;9.678;2022-12-18T16:29:49;2.57;;;2.37;;
15474;SDS011;7839;50.462;9.678;2022-12-18T16:36:29;3.63;;;2.70;;
15474;SDS011;7839;50.462;9.678;2022-12-18T16:43:10;2.80;;;2.20;;
15474;SDS011;7839;50.462;9.678;2022-12-18T16:49:50;3.13;;;2.70;;
15474;SDS011;7839;50.462;9.678;2022-12-18T16:56:32;2.23;;;2.00;;
15474;SDS011;7839;50.462;9.678;2022-12-18T17:03:12;2.40;;;2.20;;
15474;SDS011;7839;50.462;9.678;2022-12-18T17:09:53;15.33;;;10.97;;
15474;SDS011;7839;50.462;9.678;2022-12-18T17:16:33;14.53;;;10.40;;
15474;SDS011;7839;50.462;9.678;2022-12-18T17:23:14;12.13;;;7.83;;
15474;SDS011;7839;50.462;9.678;2022-12-18T17:29:55;8.87;;;6.57;;
15474;SDS011;7839;50.462;9.678;2022-12-18T17:36:36;9.70;;;6.93;;
15474;SDS011;7839;50.462;9.678;2022-12-18T17:43:17;10.43;;;7.53;;
15474;SDS011;7839;50.462;9.678;2022-12-18T17:49:57;9.40;;;7.13;;
15474;SDS011;7839;50.462;9.678;2022-12-18T17:56:37;9.03;;;6.73;;
15474;SDS011;7839;50.462;9.678;2022-12-18T18:03:18;10.50;;;8.40;;
15474;SDS011;7839;50.462;9.678;2022-12-18T18:09:58;10.37;;;7.67;;
15474;SDS011;7839;50.462;9.678;2022-12-18T18:16:40;12.20;;;8.93;;
15474;SDS011;7839;50.462;9.678;2022-12-18T18:23:20;11.40;;;8.07;;
15474;SDS011;7839;50.462;9.678;2022-12-18T18:30:01;13.40;;;9.20;;
15474;SDS011;7839;50.462;9.678;2022-12-18T18:36:41;11.97;;;9.13;;
15474;SDS011;7839;50.462;9.678;2022-12-18T18:43:21;13.50;;;9.57;;
15474;SDS011;7839;50.462;9.678;2022-12-18T18:50:02;15.17;;;9.97;;
15474;SDS011;7839;50.462;9.678;2022-12-18T18:56:42;12.00;;;9.17;;
15474;SDS011;7839;50.462;9.678;2022-12-18T19:03:23;13.00;;;8.87;;
15474;SDS011;7839;50.462;9.678;2022-12-18T19:10:04;14.47;;;9.97;;
15474;SDS011;7839;50.462;9.678;2022-12-18T19:16:45;17.03;;;11.73;;
15474;SDS011;7839;50.462;9.678;2022-12-18T19:23:26;11.23;;;9.33;;
15474;SDS011;7839;50.462;9.678;2022-12-18T19:30:06;11.50;;;7.90;;
15474;SDS011;7839;50.462;9.678;2022-12-18T19:36:47;13.90;;;10.40;;
15474;SDS011;7839;50.462;9.678;2022-12-18T19:43:27;9.33;;;7.13;;
15474;SDS011;7839;50.462;9.678;2022-12-18T19:50:08;10.20;;;8.10;;
15474;SDS011;7839;50.462;9.678;2022-12-18T19:56:48;9.13;;;7.33;;
15474;SDS011;7839;50.462;9.678;2022-12-18T20:03:29;8.40;;;6.43;;
15474;SDS011;7839;50.462;9.678;2022-12-18T20:10:10;10.30;;;6.30;;
15474;SDS011;7839;50.462;9.678;2022-12-18T20:16:52;9.17;;;5.80;;
15474;SDS011;7839;50.462;9.678;2022-12-18T20:23:32;8.53;;;6.10;;
15474;SDS011;7839;50.462;9.678;2022-12-18T20:30:13;8.27;;;5.80;;
15474;SDS011;7839;50.462;9.678;2022-12-18T20:36:53;9.50;;;6.40;;
15474;SDS011;7839;50.462;9.678;2022-12-18T20:43:33;7.10;;;5.60;;
15474;SDS011;7839;50.462;9.678;2022-12-18T20:50:14;9.30;;;6.77;;
15474;SDS011;7839;50.462;9.678;2022-12-18T20:56:54;10.57;;;7.40;;
15474;SDS011;7839;50.462;9.678;2022-12-18T21:03:36;9.47;;;6.77;;
15474;SDS011;7839;50.462;9.678;2022-12-18T21:10:17;8.50;;;6.93;;
15474;SDS011;7839;50.462;9.678;2022-12-18T21:16:57;9.37;;;6.93;;
15474;SDS011;7839;50.462;9.678;2022-12-18T21:23:40;10.43;;;7.37;;
15474;SDS011;7839;50.462;9.678;2022-12-18T21:30:21;11.52;;;7.90;;
15474;SDS011;7839;50.462;9.678;2022-12-18T21:37:01;9.80;;;6.97;;
15474;SDS011;7839;50.462;9.678;2022-12-18T21:43:41;8.87;;;6.90;;
15474;SDS011;7839;50.462;9.678;2022-12-18T21:50:40;8.20;;;7.23;;
15474;SDS011;7839;50.462;9.678;2022-12-18T21:57:21;10.40;;;7.57;;
15474;SDS011;7839;50.462;9.678;2022-12-18T22:04:01;9.13;;;7.17;;
15474;SDS011;7839;50.462;9.678;2022-12-18T22:10:41;9.23;;;7.37;;
15474;SDS011;7839;50.462;9.678;2022-12-18T22:17:21;8.43;;;6.47;;
15474;SDS011;7839;50.462;9.678;2022-12-18T22:24:03;8.03;;;6.63;;
15474;SDS011;7839;50.462;9.678;2022-12-18T22:30:44;9.50;;;6.83;;
15474;SDS011;7839;50.462;9.678;2022-12-18T22:37:25;11.40;;;7.27;;
15474;SDS011;7839;50.462;9.678;2022-12-18T22:44:05;8.67;;;6.60;;
15474;SDS011;7839;50.462;9.678;2022-12-18T22:50:46;9.17;;;6.60;;
15474;SDS011;7839;50.462;9.678;2022-12-18T22:57:27;7.60;;;5.90;;
15474;SDS011;7839;50.462;9.678;2022-12-18T23:04:07;10.33;;;6.20;;
15474;SDS011;7839;50.462;9.678;2022-12-18T23:10:51;7.45;;;5.90;;
15474;SDS011;7839;50.462;9.678;2022-12-18T23:17:31;7.03;;;5.57;;
15474;SDS011;7839;50.462;9.678;2022-12-18T23:24:11;6.07;;;5.03;;
15474;SDS011;7839;50.462;9.678;2022-12-18T23:30:52;7.00;;;5.37;;
15474;SDS011;7839;50.462;9.678;2022-12-18T23:37:32;6.68;;;4.90;;
15474;SDS011;7839;50.462;9.678;2022-12-18T23:44:12;5.53;;;4.40;;
15474;SDS011;7839;50.462;9.678;2022-12-18T23:50:52;6.27;;;4.60;;
15474;SDS011;7839;50.462;9.678;2022-12-18T23:57:33;5.83;;;4.23;;
